createdAt,value
2022-11-27T00:01:20.693Z,10.57
2022-11-27T00:03:48.080Z,11.73
2022-11-27T00:06:21.582Z,12.45
2022-11-27T00:08:48.847Z,11.85
2022-11-27T00:11:18.513Z,12.55
2022-11-27T00:13:45.871Z,15.68
2022-11-27T00:16:13.544Z,12.80
2022-11-27T00:18:40.953Z,12.98
2022-11-27T00:21:12.736Z,11.02
2022-11-27T00:23:39.950Z,11.98
2022-11-27T00:26:07.438Z,12.82
2022-11-27T00:28:35.499Z,13.82
2022-11-27T00:31:15.901Z,12.57
2022-11-27T00:33:43.008Z,10.63
2022-11-27T00:36:10.728Z,13.38
2022-11-27T00:38:39.127Z,10.15
2022-11-27T00:41:08.299Z,9.55
2022-11-27T00:43:44.057Z,8.55
2022-11-27T00:46:13.386Z,10.30
2022-11-27T00:48:40.531Z,9.93
2022-11-27T00:51:10.062Z,11.95
2022-11-27T00:53:37.429Z,10.85
2022-11-27T00:56:04.505Z,10.00
2022-11-27T00:58:31.342Z,13.10
2022-11-27T01:01:03.985Z,11.05
2022-11-27T01:03:31.389Z,10.57
2022-11-27T01:06:06.228Z,12.32
2022-11-27T01:08:34.397Z,12.55
2022-11-27T01:11:01.737Z,17.70
2022-11-27T01:13:32.390Z,12.55
2022-11-27T01:16:03.737Z,15.18
2022-11-27T01:18:30.927Z,15.10
2022-11-27T01:20:58.129Z,13.32
2022-11-27T01:23:25.435Z,14.23
2022-11-27T01:25:53.867Z,20.70
2022-11-27T01:28:22.261Z,15.45
2022-11-27T01:30:49.394Z,13.93
2022-11-27T01:33:16.488Z,13.68
2022-11-27T01:35:43.275Z,15.38
2022-11-27T01:38:09.994Z,12.98
2022-11-27T01:40:36.811Z,14.73
2022-11-27T01:43:03.582Z,15.88
2022-11-27T01:45:30.508Z,11.90
2022-11-27T01:48:00.868Z,14.25
2022-11-27T01:50:35.949Z,13.65
2022-11-27T01:53:13.858Z,12.05
2022-11-27T01:55:45.957Z,10.65
2022-11-27T01:58:19.935Z,10.27
2022-11-27T02:00:46.677Z,10.15
2022-11-27T02:03:13.505Z,12.27
2022-11-27T02:05:40.343Z,11.20
2022-11-27T02:08:12.741Z,13.00
2022-11-27T02:11:09.864Z,13.57
2022-11-27T02:14:11.226Z,13.05
2022-11-27T02:17:04.491Z,14.20
2022-11-27T02:22:35.970Z,12.88
2022-11-27T02:25:06.388Z,14.05
2022-11-27T02:28:09.488Z,14.65
2022-11-27T02:30:44.919Z,13.20
2022-11-27T02:33:12.886Z,13.60
2022-11-27T02:35:55.348Z,14.65
2022-11-27T02:38:30.714Z,13.82
2022-11-27T02:41:06.540Z,14.10
2022-11-27T02:43:45.067Z,13.82
2022-11-27T02:46:14.194Z,12.82
2022-11-27T02:48:47.437Z,13.73
2022-11-27T02:51:16.949Z,14.60
2022-11-27T02:53:50.217Z,12.00
2022-11-27T02:56:20.875Z,12.80
2022-11-27T02:58:48.576Z,11.95
2022-11-27T03:01:18.013Z,10.50
2022-11-27T03:03:49.050Z,10.23
2022-11-27T03:06:23.405Z,11.80
2022-11-27T03:08:54.385Z,11.23
2022-11-27T03:11:22.192Z,13.73
2022-11-27T03:14:01.086Z,12.85
2022-11-27T03:16:43.909Z,10.65
2022-11-27T03:19:30.135Z,12.90
2022-11-27T03:21:59.521Z,13.02
2022-11-27T03:24:27.828Z,13.10
2022-11-27T03:26:55.178Z,11.25
2022-11-27T03:29:27.315Z,10.27
2022-11-27T03:31:55.279Z,11.82
2022-11-27T03:34:22.095Z,11.15
2022-11-27T03:36:48.858Z,12.23
2022-11-27T03:39:15.990Z,11.82
2022-11-27T03:41:57.850Z,10.23
2022-11-27T03:44:59.602Z,14.13
2022-11-27T03:47:48.445Z,9.63
2022-11-27T03:50:36.411Z,10.07
2022-11-27T03:53:21.870Z,9.80
2022-11-27T03:56:29.523Z,10.30
2022-11-27T03:59:01.829Z,12.40
2022-11-27T04:01:29.376Z,11.02
2022-11-27T04:03:56.150Z,10.02
2022-11-27T04:06:22.974Z,11.20
2022-11-27T04:08:49.763Z,11.45
2022-11-27T04:11:16.796Z,7.88
2022-11-27T04:13:43.693Z,11.23
2022-11-27T04:16:10.831Z,9.68
2022-11-27T04:18:37.596Z,10.95
2022-11-27T04:21:04.486Z,10.10
2022-11-27T04:23:31.226Z,12.88
2022-11-27T04:25:58.023Z,13.80
2022-11-27T04:28:24.765Z,10.73
2022-11-27T04:30:53.234Z,7.60
2022-11-27T04:33:20.324Z,10.00
2022-11-27T04:35:47.087Z,9.70
2022-11-27T04:38:13.826Z,8.40
2022-11-27T04:40:40.545Z,9.02
2022-11-27T04:43:07.615Z,12.75
2022-11-27T04:45:34.483Z,10.95
2022-11-27T04:48:01.244Z,10.80
2022-11-27T04:50:28.048Z,10.32
2022-11-27T04:52:54.744Z,11.68
2022-11-27T04:55:21.775Z,9.52
2022-11-27T04:57:48.539Z,10.98
2022-11-27T05:00:15.718Z,11.60
2022-11-27T05:02:42.548Z,9.30
2022-11-27T05:05:09.442Z,8.90
2022-11-27T05:07:36.396Z,9.80
2022-11-27T05:10:04.816Z,9.25
2022-11-27T05:12:31.634Z,13.32
2022-11-27T05:15:01.860Z,10.15
2022-11-27T05:17:31.137Z,8.85
2022-11-27T05:19:57.872Z,8.45
2022-11-27T05:22:24.772Z,9.63
2022-11-27T05:24:51.510Z,13.63
2022-11-27T05:27:18.274Z,8.77
2022-11-27T05:29:45.112Z,10.20
2022-11-27T05:32:11.826Z,9.23
2022-11-27T05:34:38.751Z,10.70
2022-11-27T05:37:05.716Z,10.52
2022-11-27T05:39:32.435Z,9.75
2022-11-27T05:41:59.201Z,6.93
2022-11-27T05:44:26.744Z,7.75
2022-11-27T05:46:53.529Z,8.35
2022-11-27T05:49:20.319Z,9.65
2022-11-27T05:51:51.384Z,11.05
2022-11-27T05:54:19.274Z,11.38
2022-11-27T05:56:46.210Z,10.73
2022-11-27T05:59:13.000Z,7.45
2022-11-27T06:01:39.911Z,9.82
2022-11-27T06:04:06.749Z,9.60
2022-11-27T06:06:33.520Z,9.05
2022-11-27T06:09:00.737Z,7.68
2022-11-27T06:11:27.586Z,6.80
2022-11-27T06:13:54.315Z,7.93
2022-11-27T06:16:23.544Z,8.98
2022-11-27T06:18:52.528Z,8.80
2022-11-27T06:21:20.416Z,7.78
2022-11-27T06:23:47.171Z,7.35
2022-11-27T06:26:17.196Z,8.48
2022-11-27T06:28:44.785Z,9.13
2022-11-27T06:31:18.025Z,8.32
2022-11-27T06:33:46.608Z,7.63
2022-11-27T06:36:13.459Z,7.88
2022-11-27T06:38:40.331Z,9.80
2022-11-27T06:41:09.698Z,9.85
2022-11-27T06:43:36.567Z,7.75
2022-11-27T06:46:05.010Z,10.93
2022-11-27T06:48:33.482Z,8.48
2022-11-27T06:51:02.174Z,8.18
2022-11-27T06:53:30.317Z,7.35
2022-11-27T06:55:57.675Z,7.75
2022-11-27T06:58:30.688Z,9.60
2022-11-27T07:01:01.986Z,8.20
2022-11-27T07:03:28.910Z,9.23
2022-11-27T07:05:55.636Z,9.63
2022-11-27T07:08:22.499Z,8.77
2022-11-27T07:10:49.410Z,11.50
2022-11-27T07:13:16.267Z,9.27
2022-11-27T07:15:43.603Z,11.25
2022-11-27T07:18:11.062Z,10.25
2022-11-27T07:20:37.852Z,11.52
2022-11-27T07:23:04.593Z,8.65
2022-11-27T07:25:31.334Z,10.32
2022-11-27T07:27:58.080Z,8.40
2022-11-27T07:30:24.823Z,8.07
2022-11-27T07:32:51.561Z,8.75
2022-11-27T07:35:18.630Z,7.00
2022-11-27T07:37:45.345Z,7.43
2022-11-27T07:40:13.873Z,11.52
2022-11-27T07:42:41.661Z,8.55
2022-11-27T07:45:09.630Z,8.82
2022-11-27T07:47:36.680Z,9.85
2022-11-27T07:50:04.292Z,9.35
2022-11-27T07:52:31.027Z,7.25
2022-11-27T07:54:57.764Z,12.35
2022-11-27T07:57:24.499Z,8.70
2022-11-27T07:59:51.223Z,8.45
2022-11-27T08:02:17.975Z,10.75
2022-11-27T08:04:45.134Z,7.38
2022-11-27T08:07:12.411Z,8.98
2022-11-27T08:09:39.985Z,9.65
2022-11-27T08:12:07.522Z,11.05
2022-11-27T08:14:34.288Z,10.93
2022-11-27T08:17:01.111Z,12.02
2022-11-27T08:19:27.915Z,11.27
2022-11-27T08:21:56.170Z,9.20
2022-11-27T08:24:22.908Z,10.10
2022-11-27T08:26:49.669Z,9.45
2022-11-27T08:29:16.480Z,8.02
2022-11-27T08:31:43.270Z,9.55
2022-11-27T08:34:10.070Z,11.93
2022-11-27T08:36:36.820Z,9.75
2022-11-27T08:39:03.696Z,8.75
2022-11-27T08:41:30.437Z,8.13
2022-11-27T08:43:57.165Z,14.05
2022-11-27T08:46:23.913Z,9.05
2022-11-27T08:48:50.639Z,10.93
2022-11-27T08:51:17.481Z,11.18
2022-11-27T08:53:45.656Z,8.85
2022-11-27T08:56:24.168Z,11.68
2022-11-27T08:58:51.657Z,10.70
2022-11-27T09:01:29.169Z,9.65
2022-11-27T09:03:56.458Z,12.07
2022-11-27T09:06:28.131Z,8.32
2022-11-27T09:09:01.932Z,10.25
2022-11-27T09:11:31.101Z,7.75
2022-11-27T09:14:02.407Z,12.27
2022-11-27T09:16:30.509Z,10.70
2022-11-27T09:18:58.050Z,8.82
2022-11-27T09:21:27.200Z,16.92
2022-11-27T09:23:58.815Z,18.33
2022-11-27T09:26:26.478Z,12.15
2022-11-27T09:28:54.352Z,12.00
2022-11-27T09:31:22.769Z,8.98
2022-11-27T09:33:49.986Z,7.82
2022-11-27T09:36:20.243Z,11.57
2022-11-27T09:38:47.715Z,5.88
2022-11-27T09:41:49.369Z,8.73
2022-11-27T09:44:39.758Z,7.80
2022-11-27T09:47:19.743Z,5.38
2022-11-27T09:49:54.771Z,7.40
2022-11-27T09:52:51.073Z,9.57
2022-11-27T09:55:36.793Z,8.95
2022-11-27T09:58:15.723Z,7.95
2022-11-27T10:00:47.191Z,7.22
2022-11-27T10:03:16.556Z,5.10
2022-11-27T10:05:58.128Z,10.80
2022-11-27T10:08:57.995Z,5.32
2022-11-27T10:11:30.535Z,5.38
2022-11-27T10:14:16.158Z,7.50
2022-11-27T10:16:52.703Z,5.28
2022-11-27T10:19:27.117Z,5.28
2022-11-27T10:22:03.942Z,6.18
2022-11-27T10:25:02.364Z,9.98
2022-11-27T10:27:59.504Z,5.70
2022-11-27T10:30:28.301Z,7.20
2022-11-27T10:32:58.580Z,6.20
2022-11-27T10:35:43.418Z,5.53
2022-11-27T10:38:26.721Z,6.75
2022-11-27T10:41:48.086Z,4.70
2022-11-27T10:44:32.678Z,4.82
2022-11-27T10:47:05.582Z,5.05
2022-11-27T10:49:41.128Z,3.90
2022-11-27T10:52:16.838Z,6.45
2022-11-27T10:54:47.221Z,6.47
2022-11-27T10:57:19.815Z,5.15
2022-11-27T11:00:00.556Z,4.72
2022-11-27T11:02:33.520Z,4.80
2022-11-27T11:08:19.159Z,3.33
2022-11-27T11:10:51.902Z,4.32
2022-11-27T11:13:27.192Z,4.70
2022-11-27T11:15:57.033Z,6.78
2022-11-27T11:18:44.181Z,4.60
2022-11-27T11:21:27.106Z,3.20
2022-11-27T11:24:06.355Z,5.95
2022-11-27T11:26:38.896Z,3.22
2022-11-27T11:29:17.973Z,3.97
2022-11-27T11:31:45.236Z,4.22
2022-11-27T11:34:30.165Z,5.38
2022-11-27T11:37:06.429Z,4.28
2022-11-27T11:39:39.160Z,4.38
2022-11-27T11:42:11.186Z,5.53
2022-11-27T11:44:39.793Z,4.50
2022-11-27T11:47:15.297Z,5.07
2022-11-27T11:49:42.152Z,4.30
2022-11-27T11:52:21.767Z,4.78
2022-11-27T11:55:18.995Z,5.88
2022-11-27T11:58:23.428Z,4.40
2022-11-27T12:01:26.501Z,5.50
2022-11-27T12:04:24.728Z,6.32
2022-11-27T12:07:16.890Z,3.97
2022-11-27T12:09:57.451Z,6.32
2022-11-27T12:12:35.815Z,4.88
2022-11-27T12:15:31.763Z,3.60
2022-11-27T12:18:03.115Z,5.35
2022-11-27T12:20:47.847Z,4.22
2022-11-27T12:23:38.458Z,3.92
2022-11-27T12:26:23.899Z,5.55
2022-11-27T12:29:20.690Z,4.45
2022-11-27T12:31:47.470Z,4.00
2022-11-27T12:34:32.927Z,3.88
2022-11-27T12:37:22.785Z,4.10
2022-11-27T12:40:18.611Z,6.65
2022-11-27T12:43:04.406Z,7.60
2022-11-27T12:45:44.028Z,3.75
2022-11-27T12:48:26.489Z,3.35
2022-11-27T12:51:11.415Z,3.97
2022-11-27T12:53:47.937Z,4.10
2022-11-27T12:56:40.228Z,2.70
2022-11-27T12:59:25.546Z,4.30
2022-11-27T13:02:26.813Z,3.30
2022-11-27T13:05:22.770Z,6.55
2022-11-27T13:07:56.212Z,5.82
2022-11-27T13:10:35.469Z,3.65
2022-11-27T13:13:50.059Z,2.67
2022-11-27T13:16:46.694Z,2.67
2022-11-27T13:19:35.855Z,3.80
2022-11-27T13:22:10.943Z,3.50
2022-11-27T13:24:38.587Z,4.20
2022-11-27T13:27:10.718Z,5.60
2022-11-27T13:29:56.785Z,4.38
2022-11-27T13:32:30.265Z,5.93
2022-11-27T13:34:59.969Z,6.25
2022-11-27T13:37:41.456Z,14.40
2022-11-27T13:40:20.887Z,14.27
2022-11-27T13:42:55.463Z,12.43
2022-11-27T13:45:32.282Z,6.10
2022-11-27T13:48:01.040Z,5.88
2022-11-27T13:50:31.479Z,4.72
2022-11-27T13:53:07.359Z,7.22
2022-11-27T13:55:38.703Z,5.75
2022-11-27T13:58:07.174Z,5.05
2022-11-27T14:00:41.156Z,6.45
2022-11-27T14:03:20.943Z,6.28
2022-11-27T14:05:47.681Z,6.60
2022-11-27T14:08:21.733Z,8.27
2022-11-27T14:11:00.748Z,11.40
2022-11-27T14:13:56.017Z,7.70
2022-11-27T14:16:34.031Z,4.35
2022-11-27T14:19:03.765Z,2.90
2022-11-27T14:21:38.900Z,3.25
2022-11-27T14:24:27.165Z,3.33
2022-11-27T14:26:55.077Z,4.38
2022-11-27T14:29:23.416Z,5.00
2022-11-27T14:32:01.452Z,7.32
2022-11-27T14:34:29.321Z,4.28
2022-11-27T14:36:56.731Z,6.63
2022-11-27T14:39:35.050Z,4.55
2022-11-27T14:42:02.969Z,6.05
2022-11-27T14:44:30.344Z,7.70
2022-11-27T14:47:00.692Z,4.93
2022-11-27T14:49:30.063Z,5.88
2022-11-27T14:52:05.596Z,4.70
2022-11-27T14:54:36.744Z,3.55
2022-11-27T14:57:05.420Z,4.32
2022-11-27T14:59:32.552Z,4.90
2022-11-27T15:02:02.126Z,3.28
2022-11-27T15:04:38.282Z,6.57
2022-11-27T15:07:21.977Z,7.18
2022-11-27T15:09:55.148Z,7.55
2022-11-27T15:15:07.959Z,4.55
2022-11-27T15:17:38.582Z,7.57
2022-11-27T15:20:20.495Z,5.85
2022-11-27T15:22:52.789Z,7.97
2022-11-27T15:25:40.007Z,7.30
2022-11-27T15:28:28.097Z,6.45
2022-11-27T15:30:56.374Z,5.63
2022-11-27T15:33:28.845Z,9.75
2022-11-27T15:36:17.091Z,8.90
2022-11-27T15:38:45.689Z,6.80
2022-11-27T15:41:27.764Z,6.40
2022-11-27T15:43:55.633Z,6.53
2022-11-27T15:46:30.269Z,5.45
2022-11-27T15:48:57.424Z,8.27
2022-11-27T15:51:24.450Z,6.68
2022-11-27T15:53:51.230Z,7.47
2022-11-27T15:56:18.075Z,13.73
2022-11-27T15:58:44.856Z,7.80
2022-11-27T16:01:11.767Z,7.80
2022-11-27T16:03:39.992Z,8.07
2022-11-27T16:06:08.871Z,8.60
2022-11-27T16:08:35.929Z,8.60
2022-11-27T16:11:05.849Z,6.40
2022-11-27T16:13:32.702Z,7.53
2022-11-27T16:16:08.101Z,9.15
2022-11-27T16:18:35.437Z,8.63
2022-11-27T16:21:08.771Z,7.57
2022-11-27T16:23:36.383Z,6.82
2022-11-27T16:26:03.790Z,8.38
2022-11-27T16:28:31.638Z,6.40
2022-11-27T16:31:01.271Z,10.65
2022-11-27T16:33:30.362Z,9.57
2022-11-27T16:36:08.501Z,20.42
2022-11-27T16:38:35.837Z,27.95
2022-11-27T16:41:05.647Z,19.58
2022-11-27T16:43:37.842Z,10.63
2022-11-27T16:46:19.753Z,8.77
2022-11-27T16:48:49.246Z,8.32
2022-11-27T16:51:23.043Z,8.60
2022-11-27T16:53:52.160Z,10.15
2022-11-27T16:56:23.511Z,9.40
2022-11-27T16:58:51.639Z,8.65
2022-11-27T17:01:21.814Z,32.80
2022-11-27T17:03:49.253Z,20.13
2022-11-27T17:06:19.032Z,12.65
2022-11-27T17:08:46.420Z,11.75
2022-11-27T17:11:20.360Z,9.70
2022-11-27T17:13:48.361Z,9.35
2022-11-27T17:16:16.434Z,9.00
2022-11-27T17:18:45.557Z,9.48
2022-11-27T17:21:18.121Z,9.40
2022-11-27T17:23:46.861Z,11.98
2022-11-27T17:26:20.317Z,8.63
2022-11-27T17:28:47.261Z,11.35
2022-11-27T17:31:19.555Z,8.63
2022-11-27T17:33:47.590Z,9.13
2022-11-27T17:36:15.243Z,14.27
2022-11-27T17:38:42.137Z,28.05
2022-11-27T17:41:12.143Z,21.92
2022-11-27T17:43:40.213Z,13.68
2022-11-27T17:46:13.654Z,11.20
2022-11-27T17:48:41.160Z,9.73
2022-11-27T17:51:08.741Z,9.90
2022-11-27T17:53:37.142Z,10.10
2022-11-27T17:56:05.780Z,11.82
2022-11-27T17:58:33.123Z,9.90
2022-11-27T18:01:00.421Z,17.98
2022-11-27T18:03:31.024Z,35.67
2022-11-27T18:06:02.649Z,23.75
2022-11-27T18:08:29.582Z,14.50
2022-11-27T18:10:56.377Z,11.10
2022-11-27T18:13:26.284Z,10.90
2022-11-27T18:15:53.207Z,11.18
2022-11-27T18:18:19.985Z,9.32
2022-11-27T18:20:46.779Z,9.93
2022-11-27T18:23:15.125Z,10.45
2022-11-27T18:25:47.717Z,8.93
2022-11-27T18:28:15.911Z,9.15
2022-11-27T18:30:42.632Z,11.80
2022-11-27T18:33:09.383Z,20.20
2022-11-27T18:35:41.687Z,18.27
2022-11-27T18:38:08.580Z,13.30
2022-11-27T18:40:39.622Z,13.30
2022-11-27T18:43:06.371Z,8.90
2022-11-27T18:45:33.816Z,10.27
2022-11-27T18:48:01.305Z,11.82
2022-11-27T18:50:29.825Z,13.18
2022-11-27T18:52:56.990Z,9.75
2022-11-27T18:55:23.856Z,12.57
2022-11-27T18:57:50.727Z,10.35
2022-11-27T19:00:18.131Z,14.18
2022-11-27T19:02:45.045Z,16.27
2022-11-27T19:05:12.181Z,11.93
2022-11-27T19:07:39.000Z,11.85
2022-11-27T19:10:06.792Z,26.00
2022-11-27T19:12:33.590Z,17.48
2022-11-27T19:15:00.346Z,14.13
2022-11-27T19:17:32.171Z,10.13
2022-11-27T19:19:59.775Z,12.20
2022-11-27T19:22:26.821Z,11.77
2022-11-27T19:24:56.231Z,10.73
2022-11-27T19:27:23.036Z,10.18
2022-11-27T19:29:50.057Z,10.88
2022-11-27T19:32:17.566Z,11.68
2022-11-27T19:34:44.631Z,18.90
2022-11-27T19:37:12.200Z,25.00
2022-11-27T19:39:38.966Z,22.85
2022-11-27T19:42:06.842Z,16.05
2022-11-27T19:44:34.469Z,12.77
2022-11-27T19:47:01.321Z,9.30
2022-11-27T19:49:28.196Z,9.20
2022-11-27T19:51:54.982Z,11.55
2022-11-27T19:54:23.148Z,11.82
2022-11-27T19:56:51.004Z,12.40
2022-11-27T19:59:21.533Z,12.23
2022-11-27T20:01:53.264Z,11.07
2022-11-27T20:04:24.657Z,16.35
2022-11-27T20:06:53.415Z,25.92
2022-11-27T20:09:20.454Z,28.25
2022-11-27T20:11:47.721Z,19.25
2022-11-27T20:14:14.995Z,17.10
2022-11-27T20:16:43.061Z,28.38
2022-11-27T20:19:10.065Z,37.42
2022-11-27T20:21:37.503Z,27.33
2022-11-27T20:24:04.677Z,24.05
2022-11-27T20:26:37.127Z,18.88
2022-11-27T20:29:07.291Z,14.73
2022-11-27T20:31:37.496Z,15.00
2022-11-27T20:34:06.595Z,14.55
2022-11-27T20:36:37.943Z,20.08
2022-11-27T20:39:04.954Z,25.98
2022-11-27T20:41:32.888Z,28.80
2022-11-27T20:44:01.688Z,20.27
2022-11-27T20:46:30.782Z,19.42
2022-11-27T20:48:58.982Z,12.80
2022-11-27T20:51:31.317Z,13.98
2022-11-27T20:53:59.557Z,14.88
2022-11-27T20:56:26.543Z,12.57
2022-11-27T20:58:53.399Z,12.80
2022-11-27T21:01:25.980Z,13.20
2022-11-27T21:03:55.186Z,13.13
2022-11-27T21:06:26.511Z,14.18
2022-11-27T21:08:54.545Z,13.07
2022-11-27T21:11:26.801Z,13.77
2022-11-27T21:13:58.468Z,15.57
2022-11-27T21:16:27.497Z,16.13
2022-11-27T21:19:00.445Z,16.20
2022-11-27T21:21:28.171Z,13.38
2022-11-27T21:23:55.591Z,19.63
2022-11-27T21:26:23.649Z,14.07
2022-11-27T21:28:50.473Z,11.63
2022-11-27T21:31:20.991Z,11.98
2022-11-27T21:33:50.370Z,14.65
2022-11-27T21:36:18.139Z,13.18
2022-11-27T21:38:45.482Z,13.40
2022-11-27T21:41:13.963Z,13.15
2022-11-27T21:43:41.546Z,12.57
2022-11-27T21:46:12.578Z,12.02
2022-11-27T21:48:40.930Z,10.00
2022-11-27T21:51:20.868Z,13.05
2022-11-27T21:53:49.931Z,12.30
2022-11-27T21:56:18.510Z,12.07
2022-11-27T21:58:45.793Z,15.70
2022-11-27T22:01:15.278Z,14.27
2022-11-27T22:03:43.186Z,13.10
2022-11-27T22:06:13.010Z,13.85
2022-11-27T22:08:41.333Z,12.75
2022-11-27T22:11:10.674Z,12.15
2022-11-27T22:13:38.165Z,16.33
2022-11-27T22:16:20.118Z,16.67
2022-11-27T22:18:48.340Z,16.23
2022-11-27T22:21:16.998Z,14.23
2022-11-27T22:23:43.742Z,12.40
2022-11-27T22:26:13.745Z,11.40
2022-11-27T22:28:41.288Z,12.07
2022-11-27T22:31:14.463Z,13.82
2022-11-27T22:33:42.493Z,11.63
2022-11-27T22:36:18.176Z,14.63
2022-11-27T22:38:46.866Z,11.20
2022-11-27T22:41:14.841Z,10.57
2022-11-27T22:43:42.164Z,10.35
2022-11-27T22:46:12.521Z,11.60
2022-11-27T22:48:39.357Z,13.40
2022-11-27T22:51:06.327Z,13.25
2022-11-27T22:53:33.571Z,10.63
2022-11-27T22:56:08.254Z,15.80
2022-11-27T22:58:40.927Z,17.02
2022-11-27T23:01:13.487Z,23.55
2022-11-27T23:03:40.338Z,14.02
2022-11-27T23:06:11.919Z,14.75
2022-11-27T23:08:40.047Z,12.60
2022-11-27T23:11:09.048Z,9.60
2022-11-27T23:13:36.452Z,9.75
2022-11-27T23:16:06.045Z,11.18
2022-11-27T23:18:33.560Z,11.02
2022-11-27T23:21:00.384Z,11.05
2022-11-27T23:23:27.219Z,11.38
2022-11-27T23:25:53.973Z,11.32
2022-11-27T23:28:20.718Z,9.93
2022-11-27T23:30:50.309Z,12.85
2022-11-27T23:33:25.888Z,13.32
2022-11-27T23:36:00.328Z,9.52
2022-11-27T23:38:28.622Z,9.50
2022-11-27T23:40:57.092Z,10.52
2022-11-27T23:43:23.873Z,12.02
2022-11-27T23:45:50.664Z,11.98
2022-11-27T23:48:17.430Z,10.50
2022-11-27T23:50:44.140Z,11.10
2022-11-27T23:53:10.957Z,10.60
2022-11-27T23:55:37.754Z,12.43
2022-11-27T23:58:04.496Z,10.52
